createdAt,value
2023-02-16T00:00:40.513Z,11.68
2023-02-16T00:05:42.658Z,11.95
2023-02-16T00:11:05.887Z,12.43
2023-02-16T00:16:16.756Z,11.65
2023-02-16T00:21:19.238Z,12.57
2023-02-16T00:26:27.146Z,12.05
2023-02-16T00:31:33.486Z,12.52
2023-02-16T00:36:35.302Z,12.73
2023-02-16T00:41:52.320Z,12.63
2023-02-16T00:46:54.573Z,12.43
2023-02-16T00:51:57.277Z,13.05
2023-02-16T00:56:59.333Z,13.30
2023-02-16T01:02:01.196Z,13.40
2023-02-16T01:07:41.806Z,13.20
2023-02-16T01:12:43.573Z,13.90
2023-02-16T01:17:45.374Z,13.75
2023-02-16T01:22:47.274Z,12.82
2023-02-16T01:27:50.397Z,13.80
2023-02-16T01:32:52.772Z,13.25
2023-02-16T01:37:54.786Z,13.93
2023-02-16T01:43:23.108Z,13.73
2023-02-16T01:48:28.028Z,14.15
2023-02-16T01:53:33.796Z,13.50
2023-02-16T01:58:46.055Z,14.10
2023-02-16T02:04:06.297Z,14.20
2023-02-16T02:09:36.944Z,13.90
2023-02-16T02:14:40.307Z,14.65
2023-02-16T02:20:01.298Z,13.80
2023-02-16T02:25:25.371Z,14.45
2023-02-16T02:30:51.886Z,14.40
2023-02-16T02:36:41.966Z,14.52
2023-02-16T02:42:07.140Z,15.30
2023-02-16T02:47:20.336Z,14.63
2023-02-16T02:52:23.151Z,16.23
2023-02-16T02:57:53.276Z,15.68
2023-02-16T03:03:04.572Z,16.58
2023-02-16T03:08:14.411Z,16.48
2023-02-16T03:13:22.601Z,16.27
2023-02-16T03:18:45.572Z,16.35
2023-02-16T03:24:09.401Z,18.33
2023-02-16T03:29:17.589Z,17.48
2023-02-16T03:34:21.451Z,17.27
2023-02-16T03:39:23.492Z,16.77
2023-02-16T03:44:25.514Z,17.70
2023-02-16T03:49:27.348Z,16.73
2023-02-16T03:54:29.235Z,17.42
2023-02-16T03:59:31.100Z,18.42
2023-02-16T04:04:32.987Z,17.88
2023-02-16T04:09:34.918Z,17.75
2023-02-16T04:14:36.757Z,18.75
2023-02-16T04:19:38.633Z,17.40
2023-02-16T04:24:40.496Z,16.50
2023-02-16T04:29:42.303Z,17.40
2023-02-16T04:34:44.149Z,17.45
2023-02-16T04:39:46.005Z,17.70
2023-02-16T04:44:47.922Z,19.70
2023-02-16T04:49:50.396Z,18.20
2023-02-16T04:54:52.221Z,19.13
2023-02-16T04:59:54.042Z,18.33
2023-02-16T05:04:55.905Z,18.30
2023-02-16T05:09:57.750Z,19.90
2023-02-16T05:14:59.608Z,19.77
2023-02-16T05:20:02.021Z,19.92
2023-02-16T05:25:04.189Z,19.33
2023-02-16T05:30:06.752Z,18.95
2023-02-16T05:35:08.612Z,19.25
2023-02-16T05:40:11.060Z,19.13
2023-02-16T05:45:12.886Z,19.15
2023-02-16T05:50:14.696Z,21.30
2023-02-16T05:55:16.559Z,18.98
2023-02-16T06:00:18.820Z,18.88
2023-02-16T06:05:20.610Z,19.80
2023-02-16T06:10:22.471Z,20.75
2023-02-16T06:15:24.236Z,19.40
2023-02-16T06:20:26.169Z,20.60
2023-02-16T06:25:28.009Z,21.90
2023-02-16T06:30:30.374Z,22.05
2023-02-16T06:35:32.270Z,21.80
2023-02-16T06:40:34.079Z,21.25
2023-02-16T06:45:35.873Z,22.42
2023-02-16T06:50:37.864Z,20.90
2023-02-16T06:55:39.673Z,21.55
2023-02-16T07:00:41.522Z,21.35
2023-02-16T07:05:44.200Z,20.42
2023-02-16T07:10:50.516Z,20.17
2023-02-16T07:15:52.511Z,21.33
2023-02-16T07:20:54.375Z,20.70
2023-02-16T07:25:56.176Z,21.63
2023-02-16T07:30:58.181Z,21.17
2023-02-16T07:36:00.092Z,22.33
2023-02-16T07:41:02.705Z,20.13
2023-02-16T07:46:05.532Z,20.58
2023-02-16T07:51:07.742Z,21.63
2023-02-16T07:56:18.457Z,21.05
2023-02-16T08:01:21.543Z,20.95
2023-02-16T08:06:26.183Z,20.23
2023-02-16T08:11:28.032Z,20.55
2023-02-16T08:16:30.245Z,20.83
2023-02-16T08:21:34.310Z,20.13
2023-02-16T08:26:39.711Z,20.48
2023-02-16T08:31:42.192Z,20.30
2023-02-16T08:36:45.948Z,21.60
2023-02-16T08:41:49.839Z,20.95
2023-02-16T08:46:54.215Z,21.90
2023-02-16T08:51:58.463Z,21.33
2023-02-16T08:57:02.775Z,18.85
2023-02-16T09:02:04.705Z,19.27
2023-02-16T09:07:06.550Z,19.05
2023-02-16T09:12:10.767Z,19.55
2023-02-16T09:17:12.541Z,20.27
2023-02-16T09:22:15.357Z,18.88
2023-02-16T09:27:17.127Z,19.38
2023-02-16T09:32:18.927Z,20.30
2023-02-16T09:37:20.942Z,20.88
2023-02-16T09:42:40.823Z,20.20
2023-02-16T09:47:48.070Z,22.15
2023-02-16T09:52:58.423Z,21.38
2023-02-16T09:58:12.937Z,21.05
2023-02-16T10:03:34.147Z,21.77
2023-02-16T10:08:41.105Z,20.88
2023-02-16T10:13:54.216Z,22.45
2023-02-16T10:18:58.501Z,22.05
2023-02-16T10:24:06.686Z,22.25
2023-02-16T10:29:13.190Z,23.20
2023-02-16T10:34:18.232Z,23.52
2023-02-16T10:39:33.356Z,22.13
2023-02-16T10:44:40.326Z,22.70
2023-02-16T10:49:42.246Z,23.90
2023-02-16T10:54:44.139Z,21.77
2023-02-16T10:59:47.293Z,22.48
2023-02-16T11:04:52.643Z,22.50
2023-02-16T11:09:57.681Z,21.52
2023-02-16T11:15:08.173Z,22.60
2023-02-16T11:20:28.900Z,22.83
2023-02-16T11:25:30.731Z,23.00
2023-02-16T11:30:35.488Z,23.50
2023-02-16T11:35:43.649Z,22.50
2023-02-16T11:40:53.006Z,23.77
2023-02-16T11:46:10.070Z,24.45
2023-02-16T11:51:19.249Z,23.75
2023-02-16T11:56:27.947Z,23.83
2023-02-16T12:02:17.470Z,22.92
2023-02-16T12:07:23.329Z,23.38
2023-02-16T12:12:43.712Z,25.42
2023-02-16T12:18:24.012Z,25.15
2023-02-16T12:23:25.834Z,26.15
2023-02-16T12:28:42.844Z,25.20
2023-02-16T12:33:51.860Z,26.05
2023-02-16T12:39:03.346Z,26.67
2023-02-16T12:44:14.188Z,28.40
2023-02-16T12:49:28.183Z,26.98
2023-02-16T12:54:50.773Z,28.52
2023-02-16T13:00:04.851Z,28.30
2023-02-16T13:05:11.666Z,29.35
2023-02-16T13:11:01.273Z,27.88
2023-02-16T13:16:30.601Z,28.98
2023-02-16T13:21:54.664Z,29.38
2023-02-16T13:27:20.942Z,28.02
2023-02-16T13:32:22.926Z,28.77
2023-02-16T13:37:46.801Z,27.88
2023-02-16T13:43:08.976Z,28.02
2023-02-16T13:48:25.391Z,28.35
2023-02-16T13:53:35.011Z,29.75
2023-02-16T13:58:36.859Z,29.02
2023-02-16T14:03:38.951Z,28.13
2023-02-16T14:08:42.414Z,27.83
2023-02-16T14:13:48.626Z,27.52
2023-02-16T14:19:01.649Z,28.80
2023-02-16T14:24:06.437Z,36.90
2023-02-16T14:29:56.772Z,35.40
2023-02-16T14:35:21.505Z,29.50
2023-02-16T14:40:35.666Z,33.53
2023-02-16T14:45:56.191Z,32.83
2023-02-16T14:51:16.672Z,28.02
2023-02-16T14:56:39.199Z,42.22
2023-02-16T15:01:43.608Z,27.75
2023-02-16T15:06:47.628Z,26.13
2023-02-16T15:12:14.112Z,26.85
2023-02-16T15:17:25.213Z,28.25
2023-02-16T15:22:27.206Z,30.08
2023-02-16T15:27:29.820Z,25.63
2023-02-16T15:32:33.357Z,25.38
2023-02-16T15:37:37.906Z,28.55
2023-02-16T15:42:44.165Z,25.13
2023-02-16T15:47:47.033Z,26.33
2023-02-16T15:52:49.009Z,24.75
2023-02-16T15:57:51.273Z,31.40
2023-02-16T16:02:59.249Z,25.63
2023-02-16T16:08:02.626Z,30.73
2023-02-16T16:13:07.390Z,28.88
2023-02-16T16:18:37.540Z,28.67
2023-02-16T16:23:39.773Z,25.73
2023-02-16T16:28:41.810Z,25.42
2023-02-16T16:34:03.576Z,28.73
2023-02-16T16:39:11.618Z,29.63
2023-02-16T16:45:00.864Z,23.85
2023-02-16T16:50:14.529Z,23.98
2023-02-16T16:55:19.717Z,24.13
2023-02-16T17:00:25.022Z,22.52
2023-02-16T17:05:26.937Z,21.45
2023-02-16T17:10:29.615Z,22.50
2023-02-16T17:15:45.860Z,22.65
2023-02-16T17:20:48.335Z,25.15
2023-02-16T17:25:50.992Z,22.13
2023-02-16T17:30:52.832Z,24.90
2023-02-16T17:35:55.140Z,23.27
2023-02-16T17:40:58.150Z,21.55
2023-02-16T17:46:04.880Z,23.95
2023-02-16T17:51:14.999Z,22.90
2023-02-16T17:56:20.309Z,24.92
2023-02-16T18:01:22.505Z,22.60
2023-02-16T18:06:29.151Z,24.63
2023-02-16T18:11:31.136Z,23.13
2023-02-16T18:16:33.227Z,24.55
2023-02-16T18:21:35.392Z,24.02
2023-02-16T18:26:37.829Z,23.02
2023-02-16T18:31:42.503Z,24.92
2023-02-16T18:36:44.473Z,24.75
2023-02-16T18:41:46.290Z,24.55
2023-02-16T18:46:48.245Z,22.45
2023-02-16T18:51:50.111Z,24.23
2023-02-16T18:56:52.087Z,24.10
2023-02-16T19:01:56.373Z,26.05
2023-02-16T19:06:58.739Z,23.40
2023-02-16T19:12:00.693Z,23.33
2023-02-16T19:17:02.769Z,23.75
2023-02-16T19:22:04.993Z,23.65
2023-02-16T19:27:06.893Z,23.92
2023-02-16T19:32:08.837Z,23.02
2023-02-16T19:37:10.763Z,24.75
2023-02-16T19:42:12.724Z,24.80
2023-02-16T19:47:14.588Z,24.50
2023-02-16T19:52:17.374Z,24.65
2023-02-16T19:57:19.377Z,25.58
2023-02-16T20:02:21.301Z,24.95
2023-02-16T20:07:23.230Z,25.45
2023-02-16T20:12:27.959Z,25.55
2023-02-16T20:17:29.751Z,30.35
2023-02-16T20:22:31.574Z,25.48
2023-02-16T20:27:33.469Z,24.08
2023-02-16T20:32:35.356Z,23.88
2023-02-16T20:37:37.179Z,22.20
2023-02-16T20:42:39.023Z,21.58
2023-02-16T20:47:40.820Z,21.63
2023-02-16T20:52:42.677Z,20.52
2023-02-16T20:57:44.514Z,21.23
2023-02-16T21:02:46.399Z,20.08
2023-02-16T21:07:49.955Z,19.52
2023-02-16T21:12:51.926Z,19.45
2023-02-16T21:17:53.780Z,19.58
2023-02-16T21:22:55.670Z,19.33
2023-02-16T21:27:57.532Z,19.30
2023-02-16T21:32:59.341Z,19.02
2023-02-16T21:38:01.468Z,19.60
2023-02-16T21:43:03.279Z,18.35
2023-02-16T21:48:23.587Z,19.48
2023-02-16T21:53:25.450Z,19.80
2023-02-16T21:58:27.198Z,18.83
2023-02-16T22:03:29.161Z,17.25
2023-02-16T22:08:33.167Z,19.02
2023-02-16T22:13:41.763Z,17.60
2023-02-16T22:18:43.829Z,18.58
2023-02-16T22:23:45.641Z,17.83
2023-02-16T22:28:47.464Z,17.77
2023-02-16T22:33:58.740Z,17.70
2023-02-16T22:39:00.606Z,18.33
2023-02-16T22:44:02.654Z,17.08
2023-02-16T22:49:04.469Z,17.15
2023-02-16T22:54:07.763Z,16.88
2023-02-16T22:59:11.189Z,16.02
2023-02-16T23:04:15.493Z,16.45
2023-02-16T23:09:19.982Z,15.27
2023-02-16T23:14:21.794Z,16.17
2023-02-16T23:19:26.196Z,15.73
2023-02-16T23:24:28.215Z,15.80
2023-02-16T23:29:30.216Z,15.80
2023-02-16T23:34:32.013Z,16.67
2023-02-16T23:39:33.797Z,15.90
2023-02-16T23:44:35.601Z,15.57
2023-02-16T23:49:37.421Z,15.93
2023-02-16T23:54:39.309Z,15.30
2023-02-16T23:59:41.667Z,15.90
